PWSweather.com
Personal Weather Stations
Station Observations
KMNGREYC2
Grey Cloud Island, Grey Cloud Island, MN 55071

Grey Cloud IslandGrey Cloud Island, MN 55071

Lat: 44.799333, Lon: -92.987851

Elevation: 700

Station Type: Davis VP2

www.jagielski.com/weather/conditions.htm

High Low Average
Temperature 53.4°F11.9°C 35.8°F2.1°C 43.7°F6.5°C
Dew Point 41.0°F5.0°C 34.8°F1.6°C 37.9°F3.3°C
Winds 12.0 mph 19.3 kmh Calm Calm 2.0 mph SSW3.2 kmh SSW
Wind Gusts 19.0 mph30.6 kmh -- 9.0 mph14.5 kmh
Humidity 97% 57% 81%
Pressure 30.01 in1016.3 mb 29.67 in1004.7 mb -
Precipitation 0.00 in0.0 mm - -
Hour Temp Dew Point Humidity Winds Wind Gusts Pressure Precip Precip Rate Daily Precip Total
12:00 AM 38.0°F3.3°C 37.0°F2.8°C 96% 3.0 mph NNE4.8 kmh NNE 12.0 mph19.3 kmh 29.67 in1004.7 mb 0.01 in0.3 mm 0.00 in0.0 mm 0.01 in0.3 mm
12:15 AM 37.9°F3.3°C 36.9°F2.7°C 96% 2.0 mph NW3.2 kmh NW 7.0 mph11.3 kmh 29.67 in1004.7 mb 0.01 in0.3 mm 0.00 in0.0 mm 0.01 in0.3 mm
12:30 AM 38.0°F3.3°C 37.0°F2.8°C 96% 2.0 mph NNW3.2 kmh NNW 9.0 mph14.5 kmh 29.68 in1005.1 mb 0.01 in0.3 mm 0.00 in0.0 mm 0.01 in0.3 mm
12:45 AM 38.0°F3.3°C 37.0°F2.8°C 96% Calm Calm 8.0 mph12.9 kmh 29.68 in1005.1 mb 0.00 in0.0 mm 0.00 in0.0 mm 0.01 in0.3 mm
01:00 AM 38.0°F3.3°C 37.0°F2.8°C 96% 1.0 mph N1.6 kmh N 8.0 mph12.9 kmh 29.67 in1004.7 mb 0.00 in0.0 mm 0.00 in0.0 mm 0.01 in0.3 mm
01:15 AM 38.0°F3.3°C 37.0°F2.8°C 96% 2.0 mph N3.2 kmh N 12.0 mph19.3 kmh 29.67 in1004.7 mb 0.00 in0.0 mm 0.00 in0.0 mm 0.01 in0.3 mm
01:30 AM 38.0°F3.3°C 37.2°F2.9°C 97% Calm Calm 12.0 mph19.3 kmh 29.67 in1004.7 mb 0.00 in0.0 mm 0.00 in0.0 mm 0.01 in0.3 mm
01:45 AM 38.1°F3.4°C 37.3°F2.9°C 97% 1.0 mph N1.6 kmh N 8.0 mph12.9 kmh 29.67 in1004.7 mb 0.00 in0.0 mm 0.00 in0.0 mm 0.01 in0.3 mm
02:00 AM 37.8°F3.2°C 36.8°F2.7°C 96% 4.0 mph NW6.4 kmh NW 8.0 mph12.9 kmh 29.67 in1004.7 mb 0.01 in0.3 mm 0.01 in0.3 mm 0.02 in0.5 mm
02:15 AM 37.5°F3.1°C 36.5°F2.5°C 96% 1.0 mph N1.6 kmh N 9.0 mph14.5 kmh 29.67 in1004.7 mb 0.01 in0.3 mm 0.00 in0.0 mm 0.02 in0.5 mm
02:30 AM 37.3°F2.9°C 36.3°F2.4°C 96% 2.0 mph N3.2 kmh N 9.0 mph14.5 kmh 29.68 in1005.1 mb 0.01 in0.3 mm 0.00 in0.0 mm 0.02 in0.5 mm
02:45 AM 37.1°F2.8°C 36.1°F2.3°C 96% 3.0 mph NW4.8 kmh NW 10.0 mph16.1 kmh 29.68 in1005.1 mb 0.01 in0.3 mm 0.00 in0.0 mm 0.02 in0.5 mm
03:00 AM 37.0°F2.8°C 36.0°F2.2°C 96% 3.0 mph NW4.8 kmh NW 11.0 mph17.7 kmh 29.68 in1005.1 mb 0.01 in0.3 mm 0.00 in0.0 mm 0.02 in0.5 mm
03:15 AM 36.9°F2.7°C 35.9°F2.2°C 96% 3.0 mph NNW4.8 kmh NNW 12.0 mph19.3 kmh 29.68 in1005.1 mb 0.00 in0.0 mm 0.00 in0.0 mm 0.02 in0.5 mm
03:30 AM 36.9°F2.7°C 35.9°F2.2°C 96% Calm Calm 12.0 mph19.3 kmh 29.68 in1005.1 mb 0.00 in0.0 mm 0.00 in0.0 mm 0.02 in0.5 mm
03:45 AM 36.8°F2.7°C 35.8°F2.1°C 96% 2.0 mph NNW3.2 kmh NNW 10.0 mph16.1 kmh 29.69 in1005.4 mb 0.00 in0.0 mm 0.00 in0.0 mm 0.02 in0.5 mm
04:00 AM 36.5°F2.5°C 35.5°F1.9°C 96% Calm Calm 10.0 mph16.1 kmh 29.69 in1005.4 mb 0.00 in0.0 mm 0.00 in0.0 mm 0.02 in0.5 mm
04:15 AM 36.4°F2.4°C 35.4°F1.9°C 96% 5.0 mph NW8.0 kmh NW 9.0 mph14.5 kmh 29.69 in1005.4 mb 0.00 in0.0 mm 0.00 in0.0 mm 0.02 in0.5 mm
04:30 AM 36.3°F2.4°C 35.3°F1.8°C 96% Calm Calm 11.0 mph17.7 kmh 29.70 in1005.8 mb 0.00 in0.0 mm 0.00 in0.0 mm 0.02 in0.5 mm
04:45 AM 36.2°F2.3°C 35.2°F1.8°C 96% 2.0 mph N3.2 kmh N 11.0 mph17.7 kmh 29.70 in1005.8 mb 0.00 in0.0 mm 0.00 in0.0 mm 0.02 in0.5 mm
05:00 AM 36.2°F2.3°C 35.2°F1.8°C 96% 2.0 mph NW3.2 kmh NW 15.0 mph24.1 kmh 29.72 in1006.4 mb 0.00 in0.0 mm 0.00 in0.0 mm 0.02 in0.5 mm
05:15 AM 36.2°F2.3°C 35.2°F1.8°C 96% Calm Calm 7.0 mph11.3 kmh 29.72 in1006.4 mb 0.00 in0.0 mm 0.00 in0.0 mm 0.02 in0.5 mm
05:30 AM 36.1°F2.3°C 35.1°F1.7°C 96% 4.0 mph NW6.4 kmh NW 9.0 mph14.5 kmh 29.73 in1006.8 mb 0.00 in0.0 mm 0.00 in0.0 mm 0.02 in0.5 mm
05:45 AM 35.9°F2.2°C 34.9°F1.6°C 96% Calm Calm 8.0 mph12.9 kmh 29.74 in1007.1 mb 0.00 in0.0 mm 0.00 in0.0 mm 0.02 in0.5 mm
06:00 AM 35.8°F2.1°C 34.8°F1.6°C 96% 2.0 mph NNW3.2 kmh NNW 9.0 mph14.5 kmh 29.74 in1007.1 mb 0.00 in0.0 mm 0.00 in0.0 mm 0.02 in0.5 mm
06:15 AM 36.0°F2.2°C 35.2°F1.8°C 97% 4.0 mph N6.4 kmh N 11.0 mph17.7 kmh 29.74 in1007.1 mb 0.00 in0.0 mm 0.00 in0.0 mm 0.02 in0.5 mm
06:30 AM 36.0°F2.2°C 35.0°F1.7°C 96% 4.0 mph NNE6.4 kmh NNE 11.0 mph17.7 kmh 29.74 in1007.1 mb 0.00 in0.0 mm 0.00 in0.0 mm 0.02 in0.5 mm
06:45 AM 36.2°F2.3°C 35.2°F1.8°C 96% 3.0 mph N4.8 kmh N 11.0 mph17.7 kmh 29.74 in1007.1 mb 0.00 in0.0 mm 0.00 in0.0 mm 0.02 in0.5 mm
07:00 AM 36.2°F2.3°C 35.2°F1.8°C 96% 2.0 mph NW3.2 kmh NW 13.0 mph20.9 kmh 29.75 in1007.5 mb 0.00 in0.0 mm 0.00 in0.0 mm 0.02 in0.5 mm
07:15 AM 36.4°F2.4°C 35.4°F1.9°C 96% 2.0 mph N3.2 kmh N 16.0 mph25.7 kmh 29.76 in1007.8 mb 0.00 in0.0 mm 0.00 in0.0 mm 0.02 in0.5 mm
07:30 AM 36.4°F2.4°C 35.6°F2.0°C 97% 8.0 mph NW12.9 kmh NW 16.0 mph25.7 kmh 29.77 in1008.1 mb 0.00 in0.0 mm 0.00 in0.0 mm 0.02 in0.5 mm
07:45 AM 36.4°F2.4°C 35.4°F1.9°C 96% 8.0 mph W12.9 kmh W 13.0 mph20.9 kmh 29.78 in1008.5 mb 0.00 in0.0 mm 0.00 in0.0 mm 0.02 in0.5 mm
08:00 AM 36.7°F2.6°C 35.7°F2.1°C 96% 1.0 mph N1.6 kmh N 13.0 mph20.9 kmh 29.78 in1008.5 mb 0.00 in0.0 mm 0.00 in0.0 mm 0.02 in0.5 mm
08:15 AM 37.0°F2.8°C 36.0°F2.2°C 96% 4.0 mph NE6.4 kmh NE 15.0 mph24.1 kmh 29.78 in1008.5 mb 0.00 in0.0 mm 0.00 in0.0 mm 0.02 in0.5 mm
08:30 AM 37.6°F3.1°C 36.6°F2.6°C 96% 5.0 mph WNW8.0 kmh WNW 15.0 mph24.1 kmh 29.79 in1008.8 mb 0.00 in0.0 mm 0.00 in0.0 mm 0.02 in0.5 mm
08:45 AM 37.9°F3.3°C 36.6°F2.6°C 95% 2.0 mph NW3.2 kmh NW 10.0 mph16.1 kmh 29.79 in1008.8 mb 0.00 in0.0 mm 0.00 in0.0 mm 0.02 in0.5 mm
09:00 AM 38.2°F3.4°C 36.6°F2.6°C 94% 3.0 mph NE4.8 kmh NE 13.0 mph20.9 kmh 29.79 in1008.8 mb 0.00 in0.0 mm 0.00 in0.0 mm 0.02 in0.5 mm
09:15 AM 38.7°F3.7°C 36.9°F2.7°C 93% 7.0 mph NNE11.3 kmh NNE 13.0 mph20.9 kmh 29.80 in1009.1 mb 0.00 in0.0 mm 0.00 in0.0 mm 0.02 in0.5 mm
09:30 AM 39.2°F4.0°C 37.1°F2.8°C 92% 11.0 mph NNW17.7 kmh NNW 14.0 mph22.5 kmh 29.80 in1009.1 mb 0.00 in0.0 mm 0.00 in0.0 mm 0.02 in0.5 mm
09:45 AM 39.8°F4.3°C 37.4°F3.0°C 91% 4.0 mph NNW6.4 kmh NNW 12.0 mph19.3 kmh 29.81 in1009.5 mb 0.00 in0.0 mm 0.00 in0.0 mm 0.02 in0.5 mm
10:00 AM 40.2°F4.6°C 36.9°F2.7°C 88% 2.0 mph N3.2 kmh N 12.0 mph19.3 kmh 29.81 in1009.5 mb 0.00 in0.0 mm 0.00 in0.0 mm 0.02 in0.5 mm
10:15 AM 40.8°F4.9°C 37.5°F3.1°C 88% 3.0 mph NE4.8 kmh NE 12.0 mph19.3 kmh 29.82 in1009.8 mb 0.00 in0.0 mm 0.00 in0.0 mm 0.02 in0.5 mm
10:30 AM 41.1°F5.1°C 37.2°F2.9°C 86% 12.0 mph W19.3 kmh W 14.0 mph22.5 kmh 29.83 in1010.2 mb 0.00 in0.0 mm 0.00 in0.0 mm 0.02 in0.5 mm
10:45 AM 41.6°F5.3°C 37.4°F3.0°C 85% 1.0 mph NNW1.6 kmh NNW 15.0 mph24.1 kmh 29.84 in1010.5 mb 0.00 in0.0 mm 0.00 in0.0 mm 0.02 in0.5 mm
11:00 AM 42.4°F5.8°C 37.6°F3.1°C 83% 4.0 mph NNW6.4 kmh NNW 19.0 mph30.6 kmh 29.85 in1010.8 mb 0.00 in0.0 mm 0.00 in0.0 mm 0.02 in0.5 mm
11:15 AM 43.3°F6.3°C 37.9°F3.3°C 81% 6.0 mph N9.7 kmh N 11.0 mph17.7 kmh 29.84 in1010.5 mb 0.00 in0.0 mm 0.00 in0.0 mm 0.02 in0.5 mm
11:30 AM 44.0°F6.7°C 37.9°F3.3°C 79% Calm Calm 14.0 mph22.5 kmh 29.83 in1010.2 mb 0.00 in0.0 mm 0.00 in0.0 mm 0.02 in0.5 mm
11:45 AM 45.0°F7.2°C 38.9°F3.8°C 79% 2.0 mph NE3.2 kmh NE 11.0 mph17.7 kmh 29.84 in1010.5 mb 0.00 in0.0 mm 0.00 in0.0 mm 0.02 in0.5 mm
12:00 PM 45.7°F7.6°C 38.9°F3.8°C 77% Calm Calm 12.0 mph19.3 kmh 29.85 in1010.8 mb 0.00 in0.0 mm 0.00 in0.0 mm 0.02 in0.5 mm
12:15 PM 46.7°F8.2°C 39.2°F4.0°C 75% 2.0 mph NE3.2 kmh NE 10.0 mph16.1 kmh 29.85 in1010.8 mb 0.00 in0.0 mm 0.00 in0.0 mm 0.02 in0.5 mm
12:30 PM 47.9°F8.8°C 39.7°F4.3°C 73% 2.0 mph NW3.2 kmh NW 13.0 mph20.9 kmh 29.85 in1010.8 mb 0.00 in0.0 mm 0.00 in0.0 mm 0.02 in0.5 mm
12:45 PM 48.7°F9.3°C 39.4°F4.1°C 70% Calm Calm 9.0 mph14.5 kmh 29.86 in1011.2 mb 0.00 in0.0 mm 0.00 in0.0 mm 0.02 in0.5 mm
01:00 PM 48.5°F9.2°C 38.4°F3.6°C 68% 4.0 mph NW6.4 kmh NW 10.0 mph16.1 kmh 29.88 in1011.9 mb 0.00 in0.0 mm 0.00 in0.0 mm 0.02 in0.5 mm
01:15 PM 48.2°F9.0°C 38.5°F3.6°C 69% 4.0 mph ENE6.4 kmh ENE 11.0 mph17.7 kmh 29.90 in1012.5 mb 0.00 in0.0 mm 0.00 in0.0 mm 0.02 in0.5 mm
01:30 PM 48.9°F9.4°C 38.8°F3.8°C 68% 8.0 mph NW12.9 kmh NW 14.0 mph22.5 kmh 29.90 in1012.5 mb 0.00 in0.0 mm 0.00 in0.0 mm 0.02 in0.5 mm
01:45 PM 49.5°F9.7°C 38.6°F3.7°C 66% 2.0 mph NNW3.2 kmh NNW 13.0 mph20.9 kmh 29.90 in1012.5 mb 0.00 in0.0 mm 0.00 in0.0 mm 0.02 in0.5 mm
02:00 PM 50.3°F10.2°C 39.4°F4.1°C 66% 3.0 mph NE4.8 kmh NE 13.0 mph20.9 kmh 29.91 in1012.9 mb 0.00 in0.0 mm 0.00 in0.0 mm 0.02 in0.5 mm
02:15 PM 50.9°F10.5°C 39.2°F4.0°C 64% 2.0 mph N3.2 kmh N 11.0 mph17.7 kmh 29.90 in1012.5 mb 0.00 in0.0 mm 0.00 in0.0 mm 0.02 in0.5 mm
02:30 PM 51.3°F10.7°C 39.2°F4.0°C 63% 6.0 mph NNE9.7 kmh NNE 11.0 mph17.7 kmh 29.90 in1012.5 mb 0.00 in0.0 mm 0.00 in0.0 mm 0.02 in0.5 mm
02:45 PM 51.4°F10.8°C 38.8°F3.8°C 62% 3.0 mph NW4.8 kmh NW 13.0 mph20.9 kmh 29.91 in1012.9 mb 0.00 in0.0 mm 0.00 in0.0 mm 0.02 in0.5 mm
03:00 PM 51.9°F11.1°C 38.5°F3.6°C 60% 3.0 mph ENE4.8 kmh ENE 13.0 mph20.9 kmh 29.90 in1012.5 mb 0.00 in0.0 mm 0.00 in0.0 mm 0.02 in0.5 mm
03:15 PM 51.8°F11.0°C 38.8°F3.8°C 61% 1.0 mph WNW1.6 kmh WNW 11.0 mph17.7 kmh 29.90 in1012.5 mb 0.00 in0.0 mm 0.00 in0.0 mm 0.02 in0.5 mm
03:30 PM 52.8°F11.6°C 39.7°F4.3°C 61% 10.0 mph WNW16.1 kmh WNW 13.0 mph20.9 kmh 29.90 in1012.5 mb 0.00 in0.0 mm 0.00 in0.0 mm 0.02 in0.5 mm
03:45 PM 53.4°F11.9°C 39.9°F4.4°C 60% 5.0 mph NW8.0 kmh NW 10.0 mph16.1 kmh 29.89 in1012.2 mb 0.00 in0.0 mm 0.00 in0.0 mm 0.02 in0.5 mm
04:00 PM 53.3°F11.8°C 38.5°F3.6°C 57% 3.0 mph N4.8 kmh N 14.0 mph22.5 kmh 29.89 in1012.2 mb 0.00 in0.0 mm 0.00 in0.0 mm 0.02 in0.5 mm
04:15 PM 53.0°F11.7°C 38.2°F3.4°C 57% 1.0 mph N1.6 kmh N 14.0 mph22.5 kmh 29.90 in1012.5 mb 0.00 in0.0 mm 0.00 in0.0 mm 0.02 in0.5 mm
04:30 PM 52.8°F11.6°C 38.9°F3.8°C 59% 4.0 mph N6.4 kmh N 14.0 mph22.5 kmh 29.90 in1012.5 mb 0.00 in0.0 mm 0.00 in0.0 mm 0.02 in0.5 mm
04:45 PM 53.4°F11.9°C 39.9°F4.4°C 60% 4.0 mph W6.4 kmh W 9.0 mph14.5 kmh 29.91 in1012.9 mb 0.00 in0.0 mm 0.00 in0.0 mm 0.02 in0.5 mm
05:00 PM 53.0°F11.7°C 39.1°F3.9°C 59% 3.0 mph N4.8 kmh N 9.0 mph14.5 kmh 29.91 in1012.9 mb 0.00 in0.0 mm 0.00 in0.0 mm 0.02 in0.5 mm
05:15 PM 52.4°F11.3°C 38.9°F3.8°C 60% Calm Calm 9.0 mph14.5 kmh 29.91 in1012.9 mb 0.00 in0.0 mm 0.00 in0.0 mm 0.02 in0.5 mm
05:30 PM 52.5°F11.4°C 40.3°F4.6°C 63% 1.0 mph N1.6 kmh N 9.0 mph14.5 kmh 29.92 in1013.2 mb 0.00 in0.0 mm 0.00 in0.0 mm 0.02 in0.5 mm
05:45 PM 52.5°F11.4°C 39.5°F4.2°C 61% 5.0 mph NW8.0 kmh NW 7.0 mph11.3 kmh 29.92 in1013.2 mb 0.00 in0.0 mm 0.00 in0.0 mm 0.02 in0.5 mm
06:00 PM 52.1°F11.2°C 39.5°F4.2°C 62% 1.0 mph NW1.6 kmh NW 9.0 mph14.5 kmh 29.92 in1013.2 mb 0.00 in0.0 mm 0.00 in0.0 mm 0.02 in0.5 mm
06:15 PM 51.5°F10.8°C 39.3°F4.1°C 63% 3.0 mph W4.8 kmh W 8.0 mph12.9 kmh 29.92 in1013.2 mb 0.00 in0.0 mm 0.00 in0.0 mm 0.02 in0.5 mm
06:30 PM 50.9°F10.5°C 38.8°F3.8°C 63% 3.0 mph NW4.8 kmh NW 12.0 mph19.3 kmh 29.92 in1013.2 mb 0.00 in0.0 mm 0.00 in0.0 mm 0.02 in0.5 mm
06:45 PM 50.6°F10.3°C 38.9°F3.8°C 64% 2.0 mph NW3.2 kmh NW 9.0 mph14.5 kmh 29.93 in1013.5 mb 0.00 in0.0 mm 0.00 in0.0 mm 0.02 in0.5 mm
07:00 PM 50.6°F10.3°C 39.3°F4.1°C 65% Calm Calm 9.0 mph14.5 kmh 29.93 in1013.5 mb 0.00 in0.0 mm 0.00 in0.0 mm 0.02 in0.5 mm
07:15 PM 50.4°F10.2°C 39.5°F4.2°C 66% Calm Calm 4.0 mph6.4 kmh 29.93 in1013.5 mb 0.00 in0.0 mm 0.00 in0.0 mm 0.02 in0.5 mm
07:30 PM 50.3°F10.2°C 39.8°F4.3°C 67% Calm Calm 4.0 mph6.4 kmh 29.93 in1013.5 mb 0.00 in0.0 mm 0.00 in0.0 mm 0.02 in0.5 mm
07:45 PM 50.1°F10.1°C 40.3°F4.6°C 69% Calm Calm 2.0 mph3.2 kmh 29.93 in1013.5 mb 0.00 in0.0 mm 0.00 in0.0 mm 0.02 in0.5 mm
08:00 PM 49.7°F9.8°C 40.7°F4.8°C 71% Calm Calm 3.0 mph4.8 kmh 29.94 in1013.9 mb 0.00 in0.0 mm 0.00 in0.0 mm 0.02 in0.5 mm
08:15 PM 49.3°F9.6°C 39.9°F4.4°C 70% Calm Calm 1.0 mph1.6 kmh 29.94 in1013.9 mb 0.00 in0.0 mm 0.00 in0.0 mm 0.02 in0.5 mm
08:30 PM 48.8°F9.3°C 40.5°F4.7°C 73% Calm Calm 1.0 mph1.6 kmh 29.94 in1013.9 mb 0.00 in0.0 mm 0.00 in0.0 mm 0.02 in0.5 mm
08:45 PM 48.2°F9.0°C 40.3°F4.6°C 74% Calm Calm -- 29.95 in1014.2 mb 0.00 in0.0 mm 0.00 in0.0 mm 0.02 in0.5 mm
09:00 PM 47.6°F8.7°C 40.4°F4.7°C 76% Calm Calm -- 29.96 in1014.6 mb 0.00 in0.0 mm 0.00 in0.0 mm 0.02 in0.5 mm
09:15 PM 47.1°F8.4°C 40.3°F4.6°C 77% Calm Calm -- 29.96 in1014.6 mb 0.00 in0.0 mm 0.00 in0.0 mm 0.02 in0.5 mm
09:30 PM 46.8°F8.2°C 40.6°F4.8°C 79% Calm Calm 2.0 mph3.2 kmh 29.97 in1014.9 mb 0.00 in0.0 mm 0.00 in0.0 mm 0.02 in0.5 mm
09:45 PM 46.6°F8.1°C 40.5°F4.7°C 79% Calm Calm -- 29.97 in1014.9 mb 0.00 in0.0 mm 0.00 in0.0 mm 0.02 in0.5 mm
10:00 PM 46.6°F8.1°C 40.8°F4.9°C 80% Calm Calm 1.0 mph1.6 kmh 29.97 in1014.9 mb 0.00 in0.0 mm 0.00 in0.0 mm 0.02 in0.5 mm
10:15 PM 46.5°F8.1°C 41.0°F5.0°C 81% Calm Calm -- 29.98 in1015.2 mb 0.00 in0.0 mm 0.00 in0.0 mm 0.02 in0.5 mm
10:30 PM 46.3°F7.9°C 40.5°F4.7°C 80% Calm Calm 2.0 mph3.2 kmh 29.99 in1015.6 mb 0.00 in0.0 mm 0.00 in0.0 mm 0.02 in0.5 mm
10:45 PM 46.1°F7.8°C 40.6°F4.8°C 81% Calm Calm -- 29.99 in1015.6 mb 0.00 in0.0 mm 0.00 in0.0 mm 0.02 in0.5 mm
11:00 PM 45.7°F7.6°C 39.9°F4.4°C 80% Calm Calm -- 29.99 in1015.6 mb 0.00 in0.0 mm 0.00 in0.0 mm 0.02 in0.5 mm
11:15 PM 45.1°F7.3°C 39.3°F4.1°C 80% Calm Calm -- 30.00 in1015.9 mb 0.00 in0.0 mm 0.00 in0.0 mm 0.02 in0.5 mm
11:30 PM 44.4°F6.9°C 38.6°F3.7°C 80% Calm Calm -- 30.00 in1015.9 mb 0.00 in0.0 mm 0.00 in0.0 mm 0.02 in0.5 mm
11:45 PM 43.7°F6.5°C 38.3°F3.5°C 81% Calm Calm -- 30.01 in1016.3 mb 0.00 in0.0 mm 0.00 in0.0 mm 0.02 in0.5 mm